Edmonton International Airport

CYEG · 艾伯塔, 加拿大

2022年10月5日

时间 代码 天气 温度 能见度 天花板 METAR/SPECI
17:08
V
7 °C 15 mi 7.000 ft 170° 170° 4 kt METAR CYED 052308Z 17004KT 15SM FEW050 BKN070 OVC100 07/04 A3043 RMK SC1AC4AS3 DENSITY ALT 1240FT SLP327
17:00
V
7 °C 15 mi 7.000 ft 170° 170° 4 kt METAR CYED 052300Z 17004KT 15SM -SHRA FEW050 BKN070 OVC100 07/05 A3043 RMK SC1AC4AS3 DENSITY ALT 1255FT SLP327
16:44
V
7 °C 15 mi 7.000 ft 170° 170° 4 kt METAR CYED 052244Z 17004KT 15SM -SHRA SCT050 OVC070 07/04 A3043 RMK SC3AC5 DENSITY ALT 1279FT SLP325
16:00
V
7 °C 15 mi 8.000 ft 140° 140° 4 kt METAR CYED 052200Z 14004KT 15SM FEW015 BKN080 OVC180 07/04 A3044 RMK SC1AC4AS3 DENSITY ALT 1320FT SLP327
15:22
V
8 °C 8 mi 8.000 ft 150° 150° 5 kt METAR CYED 052122Z 15005KT 8SM FEW015 BKN080 OVC180 08/05 A3042 RMK SC2AC4AS2 DENSITY ALT 1371FT SLP321
15:00
V
8 °C 8 mi 8.000 ft 150° 150° 6 kt METAR CYED 052100Z 15006KT 8SM FEW050 BKN080 OVC180 08/05 A3041 RMK SC1AC6AS1 DENSITY ALT 1409FT SLP319
14:00
V
8 °C 8 mi 8.000 ft 150° 150° 6 kt METAR CYED 052000Z 15006KT 8SM FEW050 BKN080 OVC180 08/05 A3040 RMK SC1AC7AS1 DENSITY ALT 1473FT SLP313
13:00
V
8 °C 15 mi 8.000 ft 160° 160° 5 kt METAR CYED 051900Z CCA 16005KT 15SM FEW050 BKN080 OVC180 08/04 A3039 RMK SC1AC7AS1 DENSITY ALT 1416FT SLP312
12:00
V
7 °C 8 mi 8.000 ft 150° 150° 6 kt METAR CYED 051800Z 15006KT 8SM FEW050 BKN080 OVC180 07/04 A3038 RMK SC1AC7AS1 DENSITY ALT 1360FT SLP307
11:00
V
7 °C 8 mi 8.000 ft 150° 150° 6 kt METAR CYED 051700Z 15006KT 8SM FEW050 BKN080 OVC180 07/04 A3037 RMK SC1AC4AC3 DENSITY ALT 1306FT SLP304
10:00
V
7 °C 10 mi 8.000 ft 150° 150° 6 kt METAR CYED 051600Z 15006KT 10SM OVC080 07/03 A3036 RMK AC8 DENSITY ALT 1310FT SLP299
09:00
V
7 °C 15 mi 7.500 ft 150° 150° 4 kt METAR CYED 051500Z 15004KT 15SM BKN075 OVC180 07/02 A3033 RMK AC7AC1 DENSITY ALT 1381FT SLP289
08:00
V
7 °C 15 mi 8.000 ft 140° 140° 4 kt METAR CYED 051400Z 14004KT 15SM BKN080 OVC180 07/02 A3031 RMK AC7AC1 DENSITY ALT 1348FT SLP280
07:00
V
6 °C 15 mi 9.500 ft 140° 140° 4 kt METAR CYED 051300Z 14004KT 15SM BKN095 OVC180 06/02 A3029 RMK AC5AC3 DENSITY ALT 1342FT FST OBS SLP273
02:43
V
6 °C 15 mi - 120° 120° 3 kt METAR CYED 050843Z 12003KT 15SM FEW160 SCT240 06/01 A3025 RMK AC1CI3 DENSITY ALT 1358FT LAST OBS /NEXT 051300 UTC SLP253
02:00
V
7 °C 15 mi - 100° 100° 2 kt METAR CYED 050800Z 10002KT 15SM FEW160 SCT240 07/01 A3024 RMK AC1CI3 DENSITY ALT 1408FT SLP251
01:00
V
6 °C 15 mi 24.000 ft Var 000° 0 kt METAR CYED 050700Z 00000KT 15SM FEW160 BKN240 06/02 A3023 RMK AC1CI6 DENSITY ALT 1400FT SLP247
00:00
V
8 °C 15 mi 24.000 ft Var 000° 0 kt METAR CYED 050600Z 00000KT 15SM FEW160 OVC240 08/02 A3022 RMK AC1CI7 DENSITY ALT 1635FT SLP245

2022年10月4日

时间 代码 天气 温度 能见度 天花板 METAR/SPECI
23:00
V
9 °C 15 mi 24.000 ft Var 000° 0 kt METAR CYED 050500Z 00000KT 15SM FEW160 BKN240 09/02 A3020 RMK AC2CI5 DENSITY ALT 1763FT SLP238
22:00
V
10 °C 15 mi 24.000 ft Var 000° 0 kt METAR CYED 050400Z 00000KT 15SM SCT160 OVC240 10/02 A3018 RMK AC3CI5 DENSITY ALT 1916FT SLP232
21:00
V
11 °C 15 mi 24.000 ft 090° 090° 3 kt METAR CYED 050300Z 09003KT 15SM SCT160 OVC240 11/02 A3017 RMK AC4CI4 DENSITY ALT 2056FT SLP233
20:00
V
13 °C 15 mi 22.000 ft 070° 070° 2 kt METAR CYED 050200Z 07002KT 15SM SCT160 BKN220 13/02 A3016 RMK AC4CI2 DENSITY ALT 2283FT SLP229
19:00
V
14 °C 12 mi 22.000 ft 050° 050° 2 kt METAR CYED 050100Z 05002KT 12SM SCT160 BKN220 BKN240 14/01 A3014 RMK AC3CI2CI2 DENSITY ALT 2457FT SLP222
18:00
V
17 °C 12 mi 22.000 ft 060° 060° 3 kt METAR CYED 050000Z 06003KT 12SM BKN220 OVC240 17/01 A3014 RMK CI6CI2 DENSITY ALT 2858FT SLP217
17:00
V
19 °C 15 mi 24.000 ft 060° 060° 4 kt METAR CYED 042300Z 06004KT 15SM BKN240 19/01 A3013 RMK CI7 DENSITY ALT 3081FT SLP212
16:00
V
19 °C 15 mi 24.000 ft 040° 040° 3 kt METAR CYED 042200Z 04003KT 350V080 15SM BKN240 19/01 A3012 RMK CI7 DENSITY ALT 3170FT SLP208
15:00
V
19 °C 15 mi - 060° 060° 3 kt METAR CYED 042100Z 06003KT 020V100 15SM FEW240 19/04 A3012 RMK CI2 DENSITY ALT 3211FT SLP207
14:00
V
19 °C 15 mi 24.000 ft 050° 050° 3 kt METAR CYED 042000Z 05003KT 020V090 15SM BKN240 19/05 A3012 RMK CI5 DENSITY ALT 3145FT SLP208
13:00
V
18 °C 15 mi 24.000 ft 020° 020° 3 kt METAR CYED 041900Z 02003KT 290V080 15SM BKN240 18/06 A3011 RMK CI6 DENSITY ALT 3002FT SLP205
12:00
V
16 °C 15 mi 24.000 ft 030° 030° 2 kt METAR CYED 041800Z 03002KT 15SM BKN240 16/06 A3011 RMK CI6 DENSITY ALT 2847FT SLP207
11:00
V
15 °C 15 mi 24.000 ft 360° 360° 3 kt METAR CYED 041700Z 36003KT 310V040 15SM BKN240 15/08 A3011 RMK CI7 DENSITY ALT 2725FT SLP206
10:00
V
12 °C 15 mi - 360° 360° 4 kt METAR CYED 041600Z 36004KT 320V050 15SM FEW240 12/08 A3009 RMK CI2 DENSITY ALT 2312FT SLP203
09:00
V
8 °C 15 mi - 340° 340° 3 kt METAR CYED 041500Z 34003KT 310V010 15SM FEW090 SCT240 08/07 A3008 RMK AC1CI4 DENSITY ALT 1822FT SLP200
08:00
V
6 °C 15 mi - 330° 330° 2 kt METAR CYED 041400Z 33002KT 15SM FEW090 SCT240 06/05 A3007 RMK AC1CI3 DENSITY ALT 1569FT SLP198
07:00
V
6 °C 15 mi - 340° 340° 2 kt METAR CYED 041300Z 34002KT 15SM FEW070 SCT240 06/04 A3006 RMK AC1CI3 DENSITY ALT 1519FT FST OBS SLP194
01:31
V
7 °C 15 mi - Var 000° 0 kt METAR CYED 040731Z 00000KT 15SM FEW100 07/03 A3004 RMK AC1 DENSITY ALT 1671FT LAST OBS /NEXT 041300 UTC SLP183
01:00
V
9 °C 15 mi - Var 000° 0 kt METAR CYED 040700Z 00000KT 15SM FEW100 09/04 A3005 RMK AC1 DENSITY ALT 1941FT SLP185
00:00
V
9 °C 15 mi - Var 000° 0 kt METAR CYED 040600Z 00000KT 15SM FEW250 09/04 A3005 RMK CI1 DENSITY ALT 2006FT SLP188

2022年10月3日

时间 代码 天气 温度 能见度 天花板 METAR/SPECI
23:00
V
9 °C 15 mi - Var 000° 0 kt METAR CYED 040500Z 00000KT 15SM FEW250 09/04 A3006 RMK CI2 DENSITY ALT 1925FT SLP192
22:00
V
10 °C 15 mi - Var 000° 0 kt METAR CYED 040400Z 00000KT 15SM FEW250 10/04 A3007 RMK CI2 DENSITY ALT 2119FT SLP195
21:00
V
11 °C 15 mi - 170° 170° 2 kt METAR CYED 040300Z 17002KT 15SM FEW250 11/04 A3007 RMK CI2 DENSITY ALT 2196FT SLP197
20:00
V
12 °C 15 mi - 170° 170° 2 kt METAR CYED 040200Z 17002KT 15SM FEW250 12/04 A3007 RMK CI2 DENSITY ALT 2352FT SLP199
19:00
V
15 °C 15 mi - 170° 170° 3 kt METAR CYED 040100Z 17003KT 15SM FEW100 SCT250 15/04 A3008 RMK AC1CI2 DENSITY ALT 2701FT SLP197
18:00
V
18 °C 15 mi - 190° 190° 4 kt METAR CYED 040000Z 19004KT 15SM FEW100 SCT250 18/06 A3008 RMK AC2CI1 DENSITY ALT 3112FT SLP196
17:00
V
20 °C 15 mi 10.000 ft 200° 200° 4 kt METAR CYED 032300Z 20004KT 15SM BKN100 BKN250 20/06 A3008 RMK AC5CI1 DENSITY ALT 3364FT SLP197
16:33
V
20 °C 15 mi 8.000 ft 180° 180° 4 kt METAR CYED 032233Z 18004KT 140V200 15SM BKN080 20/06 A3009 RMK AC5 DENSITY ALT 3318FT SLP200
16:17
V
19 °C 15 mi 8.000 ft 190° 190° 5 kt METAR CYED 032217Z 19005KT 15SM -SHRA BKN080 19/06 A3009 RMK AC7 DENSITY ALT 3202FT PRESFR SLP200
16:00
V
19 °C 15 mi 10.000 ft 170° 170° 2 kt METAR CYED 032200Z 17002KT 15SM BKN100 19/05 A3011 RMK AC7 DENSITY ALT 3213FT SLP206
15:00
V
19 °C 15 mi 12.000 ft 160° 160° 3 kt METAR CYED 032100Z 16003KT 15SM BKN120 19/04 A3012 RMK AC6 DENSITY ALT 3126FT SLP208
14:00
V
18 °C 15 mi 12.000 ft 200° 200° 3 kt METAR CYED 032000Z 20003KT 15SM FEW080 BKN120 18/02 A3014 RMK AC1AC6 DENSITY ALT 3030FT SLP213
13:00
V
17 °C 15 mi 12.000 ft 240° 240° 3 kt METAR CYED 031900Z 24003KT 15SM FEW080 BKN120 17/01 A3015 RMK AC1AC6 DENSITY ALT 2899FT SLP218
12:00
V
15 °C 15 mi 12.000 ft 230° 230° 2 kt METAR CYED 031800Z 23002KT 15SM BKN120 BKN250 15/02 A3016 RMK AC6CI1 DENSITY ALT 2618FT VIRGA NE SLP226
11:00
V
13 °C 15 mi 12.000 ft 200° 200° 3 kt METAR CYED 031700Z 20003KT 15SM FEW100 BKN120 13/02 A3017 RMK AC2AC5 DENSITY ALT 2352FT VIRGA NE SLP228
10:00
V
11 °C 15 mi 10.000 ft 190° 190° 3 kt METAR CYED 031600Z 19003KT 15SM BKN100 11/02 A3018 RMK AC6 DENSITY ALT 2097FT SLP232
09:00
V
9 °C 15 mi 8.000 ft 160° 160° 2 kt METAR CYED 031500Z 16002KT 15SM BKN080 BKN100 09/03 A3019 RMK AC6AC1 DENSITY ALT 1797FT SLP237
较旧的数据

我们和第三方通过cookies跟踪您在我们网站上的上网行为。如果您继续,我们认为您同意我们的cookie政策。 了解更多